sensor_id;sensor_type;location;lat;lon;timestamp;pressure;altitude;pressure_sealevel;temperature;humidity
69351;BME280;57106;51.446;-2.606;2023-02-11T00:02:01;103595.65;;;9.71;81.56
69351;BME280;57106;51.446;-2.606;2023-02-11T00:04:25;103598.53;;;9.70;81.55
69351;BME280;57106;51.446;-2.606;2023-02-11T00:23:50;103622.75;;;10.02;80.19
69351;BME280;57106;51.446;-2.606;2023-02-11T00:26:17;103623.76;;;10.01;80.11
69351;BME280;57106;51.446;-2.606;2023-02-11T00:28:40;103618.77;;;9.75;81.25
69351;BME280;57106;51.446;-2.606;2023-02-11T00:31:06;103613.48;;;9.72;81.42
69351;BME280;57106;51.446;-2.606;2023-02-11T00:33:43;103606.34;;;9.78;81.05
69351;BME280;57106;51.446;-2.606;2023-02-11T00:36:03;103605.74;;;9.94;80.80
69351;BME280;57106;51.446;-2.606;2023-02-11T02:00:53;103580.99;;;9.90;79.47
69351;BME280;57106;51.446;-2.606;2023-02-11T02:03:20;103580.51;;;9.92;79.53
69351;BME280;57106;51.446;-2.606;2023-02-11T02:05:47;103578.06;;;10.09;79.12
69351;BME280;57106;51.446;-2.606;2023-02-11T02:08:15;103574.20;;;10.05;78.99
69351;BME280;57106;51.446;-2.606;2023-02-11T02:10:38;103572.08;;;10.02;79.17
69351;BME280;57106;51.446;-2.606;2023-02-11T02:13:01;103578.38;;;10.10;79.06
69351;BME280;57106;51.446;-2.606;2023-02-11T02:15:29;103581.19;;;10.13;78.65
69351;BME280;57106;51.446;-2.606;2023-02-11T02:17:58;103587.12;;;10.13;78.56
69351;BME280;57106;51.446;-2.606;2023-02-11T02:20:38;103591.46;;;10.33;78.13
69351;BME280;57106;51.446;-2.606;2023-02-11T02:22:56;103590.10;;;10.09;78.74
69351;BME280;57106;51.446;-2.606;2023-02-11T02:27:40;103589.03;;;10.25;78.19
69351;BME280;57106;51.446;-2.606;2023-02-11T02:30:15;103583.33;;;10.23;78.05
69351;BME280;57106;51.446;-2.606;2023-02-11T02:32:33;103577.40;;;10.06;78.59
69351;BME280;57106;51.446;-2.606;2023-02-11T02:34:55;103576.98;;;10.03;79.27
69351;BME280;57106;51.446;-2.606;2023-02-11T02:37:20;103579.71;;;9.86;79.87
69351;BME280;57106;51.446;-2.606;2023-02-11T02:39:43;103582.32;;;9.83;80.18
69351;BME280;57106;51.446;-2.606;2023-02-11T02:42:08;103579.52;;;9.89;79.99
69351;BME280;57106;51.446;-2.606;2023-02-11T02:44:33;103578.27;;;9.92;79.66
69351;BME280;57106;51.446;-2.606;2023-02-11T02:46:59;103572.24;;;9.90;79.73
69351;BME280;57106;51.446;-2.606;2023-02-11T02:49:24;103568.23;;;10.04;79.40
69351;BME280;57106;51.446;-2.606;2023-02-11T02:52:00;103569.54;;;10.18;78.75
69351;BME280;57106;51.446;-2.606;2023-02-11T02:54:28;103562.28;;;10.01;79.62
69351;BME280;57106;51.446;-2.606;2023-02-11T02:56:44;103559.32;;;10.01;79.47
69351;BME280;57106;51.446;-2.606;2023-02-11T02:59:20;103557.56;;;10.05;79.10
69351;BME280;57106;51.446;-2.606;2023-02-11T03:01:41;103551.95;;;10.07;79.00
69351;BME280;57106;51.446;-2.606;2023-02-11T03:04:04;103545.43;;;10.02;79.04
69351;BME280;57106;51.446;-2.606;2023-02-11T03:06:29;103541.94;;;10.05;79.04
69351;BME280;57106;51.446;-2.606;2023-02-11T03:08:50;103540.98;;;10.08;79.23
69351;BME280;57106;51.446;-2.606;2023-02-11T03:11:17;103536.58;;;9.85;79.94
69351;BME280;57106;51.446;-2.606;2023-02-11T03:13:40;103539.57;;;10.08;79.00
69351;BME280;57106;51.446;-2.606;2023-02-11T03:16:08;103539.59;;;9.88;79.50
69351;BME280;57106;51.446;-2.606;2023-02-11T03:18:31;103535.21;;;10.00;79.26
69351;BME280;57106;51.446;-2.606;2023-02-11T03:33:11;103515.35;;;9.59;81.27
69351;BME280;57106;51.446;-2.606;2023-02-11T03:45:14;103512.26;;;9.70;80.99
69351;BME280;57106;51.446;-2.606;2023-02-11T03:47:40;103516.02;;;9.76;80.79
69351;BME280;57106;51.446;-2.606;2023-02-11T03:50:05;103519.47;;;9.91;80.35
69351;BME280;57106;51.446;-2.606;2023-02-11T03:52:29;103523.23;;;9.98;79.82
69351;BME280;57106;51.446;-2.606;2023-02-11T03:54:56;103521.63;;;10.02;79.21
69351;BME280;57106;51.446;-2.606;2023-02-11T03:57:19;103522.06;;;9.87;79.72
69351;BME280;57106;51.446;-2.606;2023-02-11T03:59:54;103527.91;;;10.18;78.93
69351;BME280;57106;51.446;-2.606;2023-02-11T04:02:11;103529.80;;;10.12;78.77
69351;BME280;57106;51.446;-2.606;2023-02-11T04:04:36;103537.59;;;10.24;78.58
69351;BME280;57106;51.446;-2.606;2023-02-11T04:07:02;103541.91;;;10.18;78.66
69351;BME280;57106;51.446;-2.606;2023-02-11T04:09:28;103540.11;;;10.23;78.43
69351;BME280;57106;51.446;-2.606;2023-02-11T04:11:53;103536.53;;;10.19;78.48
69351;BME280;57106;51.446;-2.606;2023-02-11T04:14:19;103535.93;;;10.28;78.46
69351;BME280;57106;51.446;-2.606;2023-02-11T04:16:44;103529.63;;;10.12;79.03
69351;BME280;57106;51.446;-2.606;2023-02-11T04:19:10;103534.29;;;10.03;79.33
69351;BME280;57106;51.446;-2.606;2023-02-11T04:21:38;103536.28;;;10.14;79.10
69351;BME280;57106;51.446;-2.606;2023-02-11T04:24:01;103539.55;;;10.14;79.09
69351;BME280;57106;51.446;-2.606;2023-02-11T04:26:26;103542.10;;;10.21;78.96
69351;BME280;57106;51.446;-2.606;2023-02-11T04:28:52;103541.58;;;10.13;78.98
69351;BME280;57106;51.446;-2.606;2023-02-11T04:31:18;103540.45;;;10.01;79.61
69351;BME280;57106;51.446;-2.606;2023-02-11T04:33:43;103542.64;;;10.09;79.61
69351;BME280;57106;51.446;-2.606;2023-02-11T04:36:09;103547.11;;;10.07;79.54
69351;BME280;57106;51.446;-2.606;2023-02-11T04:38:35;103549.00;;;10.23;79.07
69351;BME280;57106;51.446;-2.606;2023-02-11T04:40:59;103548.10;;;10.38;78.51
69351;BME280;57106;51.446;-2.606;2023-02-11T04:43:25;103553.52;;;10.50;77.92
69351;BME280;57106;51.446;-2.606;2023-02-11T04:45:51;103552.52;;;10.38;78.14
69351;BME280;57106;51.446;-2.606;2023-02-11T04:48:16;103557.80;;;10.38;77.72
69351;BME280;57106;51.446;-2.606;2023-02-11T04:50:42;103562.90;;;10.39;78.10
69351;BME280;57106;51.446;-2.606;2023-02-11T04:53:08;103566.80;;;10.35;78.30
69351;BME280;57106;51.446;-2.606;2023-02-11T10:18:29;103698.13;;;11.90;73.79
69351;BME280;57106;51.446;-2.606;2023-02-11T10:20:47;103698.30;;;12.01;72.87
69351;BME280;57106;51.446;-2.606;2023-02-11T10:23:14;103694.24;;;12.12;72.62
69351;BME280;57106;51.446;-2.606;2023-02-11T10:25:36;103692.66;;;12.12;72.69
69351;BME280;57106;51.446;-2.606;2023-02-11T10:27:59;103690.60;;;12.28;71.92
69351;BME280;57106;51.446;-2.606;2023-02-11T10:30:29;103695.09;;;12.22;71.82
69351;BME280;57106;51.446;-2.606;2023-02-11T10:32:51;103693.88;;;12.33;71.73
69351;BME280;57106;51.446;-2.606;2023-02-11T10:35:17;103697.37;;;12.36;71.18
69351;BME280;57106;51.446;-2.606;2023-02-11T10:37:40;103703.36;;;12.47;70.21
69351;BME280;57106;51.446;-2.606;2023-02-11T10:40:12;103703.00;;;12.65;68.93
69351;BME280;57106;51.446;-2.606;2023-02-11T10:42:32;103701.04;;;12.58;69.28
69351;BME280;57106;51.446;-2.606;2023-02-11T10:44:58;103701.86;;;12.64;68.99
69351;BME280;57106;51.446;-2.606;2023-02-11T10:47:25;103701.20;;;12.85;68.65
69351;BME280;57106;51.446;-2.606;2023-02-11T10:49:48;103703.51;;;12.84;68.99
69351;BME280;57106;51.446;-2.606;2023-02-11T10:52:18;103702.17;;;12.80;69.10
69351;BME280;57106;51.446;-2.606;2023-02-11T10:54:39;103702.28;;;12.82;68.10
69351;BME280;57106;51.446;-2.606;2023-02-11T10:57:05;103702.00;;;12.75;67.56
69351;BME280;57106;51.446;-2.606;2023-02-11T10:59:31;103704.72;;;12.58;68.02
69351;BME280;57106;51.446;-2.606;2023-02-11T11:01:57;103704.51;;;12.46;68.32
69351;BME280;57106;51.446;-2.606;2023-02-11T11:04:33;103703.07;;;12.31;68.02
69351;BME280;57106;51.446;-2.606;2023-02-11T11:06:47;103704.32;;;12.46;67.95
69351;BME280;57106;51.446;-2.606;2023-02-11T11:43:16;103699.22;;;12.21;68.73
69351;BME280;57106;51.446;-2.606;2023-02-11T11:45:34;103703.47;;;12.06;69.02
69351;BME280;57106;51.446;-2.606;2023-02-11T11:48:03;103703.53;;;12.09;69.49
69351;BME280;57106;51.446;-2.606;2023-02-11T11:50:26;103701.81;;;11.89;69.84
69351;BME280;57106;51.446;-2.606;2023-02-11T12:02:46;103690.18;;;11.64;71.48
69351;BME280;57106;51.446;-2.606;2023-02-11T12:05:00;103687.64;;;11.89;71.19
69351;BME280;57106;51.446;-2.606;2023-02-11T12:07:34;103685.41;;;11.90;70.65
69351;BME280;57106;51.446;-2.606;2023-02-11T12:10:00;103682.75;;;11.86;70.55
69351;BME280;57106;51.446;-2.606;2023-02-11T12:12:27;103681.39;;;12.07;70.07
69351;BME280;57106;51.446;-2.606;2023-02-11T12:14:45;103674.02;;;12.15;70.26
69351;BME280;57106;51.446;-2.606;2023-02-11T12:17:13;103672.73;;;12.16;70.24
69351;BME280;57106;51.446;-2.606;2023-02-11T12:19:46;103674.30;;;12.21;70.37
69351;BME280;57106;51.446;-2.606;2023-02-11T12:22:05;103672.08;;;12.17;69.95
69351;BME280;57106;51.446;-2.606;2023-02-11T12:24:34;103675.02;;;12.23;70.37
69351;BME280;57106;51.446;-2.606;2023-02-11T12:26:52;103673.00;;;12.26;70.55
69351;BME280;57106;51.446;-2.606;2023-02-11T12:29:21;103669.52;;;12.30;70.82
69351;BME280;57106;51.446;-2.606;2023-02-11T12:31:49;103666.90;;;12.11;71.30
69351;BME280;57106;51.446;-2.606;2023-02-11T12:36:42;103652.02;;;12.08;71.21
69351;BME280;57106;51.446;-2.606;2023-02-11T12:39:04;103654.41;;;12.07;71.26
69351;BME280;57106;51.446;-2.606;2023-02-11T12:41:33;103649.40;;;12.09;71.77
69351;BME280;57106;51.446;-2.606;2023-02-11T12:48:49;103637.25;;;11.94;72.07
69351;BME280;57106;51.446;-2.606;2023-02-11T12:51:10;103636.73;;;12.14;71.97
69351;BME280;57106;51.446;-2.606;2023-02-11T12:53:38;103635.62;;;12.28;71.82
69351;BME280;57106;51.446;-2.606;2023-02-11T12:55:59;103632.59;;;12.18;71.92
69351;BME280;57106;51.446;-2.606;2023-02-11T12:58:21;103629.40;;;12.34;71.77
69351;BME280;57106;51.446;-2.606;2023-02-11T13:00:47;103628.92;;;12.50;70.97
69351;BME280;57106;51.446;-2.606;2023-02-11T13:03:14;103634.51;;;12.49;71.03
69351;BME280;57106;51.446;-2.606;2023-02-11T13:05:39;103636.96;;;12.47;70.37
69351;BME280;57106;51.446;-2.606;2023-02-11T13:08:04;103638.66;;;12.62;69.61
69351;BME280;57106;51.446;-2.606;2023-02-11T13:10:30;103631.18;;;12.59;69.75
69351;BME280;57106;51.446;-2.606;2023-02-11T13:12:53;103627.05;;;12.57;70.06
69351;BME280;57106;51.446;-2.606;2023-02-11T13:15:17;103622.15;;;12.58;69.24
69351;BME280;57106;51.446;-2.606;2023-02-11T13:17:48;103621.66;;;12.85;68.43
69351;BME280;57106;51.446;-2.606;2023-02-11T13:20:18;103623.53;;;12.92;67.54
69351;BME280;57106;51.446;-2.606;2023-02-11T13:22:38;103624.50;;;12.91;67.03
69351;BME280;57106;51.446;-2.606;2023-02-11T13:25:05;103622.63;;;12.89;67.20
69351;BME280;57106;51.446;-2.606;2023-02-11T13:27:31;103622.91;;;13.02;65.67
69351;BME280;57106;51.446;-2.606;2023-02-11T13:30:07;103627.61;;;13.11;65.32
69351;BME280;57106;51.446;-2.606;2023-02-11T13:32:21;103625.62;;;13.23;64.87
69351;BME280;57106;51.446;-2.606;2023-02-11T13:34:55;103622.06;;;13.28;64.16
69351;BME280;57106;51.446;-2.606;2023-02-11T13:39:32;103613.56;;;13.47;63.71
69351;BME280;57106;51.446;-2.606;2023-02-11T13:42:02;103611.96;;;12.95;63.85
69351;BME280;57106;51.446;-2.606;2023-02-11T13:44:25;103613.47;;;13.05;63.94
69351;BME280;57106;51.446;-2.606;2023-02-11T13:46:52;103616.11;;;13.21;62.75
69351;BME280;57106;51.446;-2.606;2023-02-11T13:49:19;103614.92;;;13.12;62.92
69351;BME280;57106;51.446;-2.606;2023-02-11T13:51:41;103618.22;;;13.16;62.82
69351;BME280;57106;51.446;-2.606;2023-02-11T13:54:06;103613.49;;;13.34;62.65
69351;BME280;57106;51.446;-2.606;2023-02-11T13:56:33;103607.87;;;13.30;62.43
69351;BME280;57106;51.446;-2.606;2023-02-11T13:58:57;103605.81;;;13.09;63.39
69351;BME280;57106;51.446;-2.606;2023-02-11T14:01:38;103602.29;;;13.04;63.55
69351;BME280;57106;51.446;-2.606;2023-02-11T14:06:16;103599.55;;;13.30;63.71
69351;BME280;57106;51.446;-2.606;2023-02-11T14:11:06;103604.63;;;13.26;63.18
69351;BME280;57106;51.446;-2.606;2023-02-11T14:13:30;103596.13;;;13.21;62.37
69351;BME280;57106;51.446;-2.606;2023-02-11T14:16:05;103592.06;;;13.39;62.44
69351;BME280;57106;51.446;-2.606;2023-02-11T14:20:45;103591.46;;;13.62;63.08
69351;BME280;57106;51.446;-2.606;2023-02-11T14:23:20;103591.92;;;13.59;64.10
69351;BME280;57106;51.446;-2.606;2023-02-11T14:25:40;103595.83;;;13.65;63.76
69351;BME280;57106;51.446;-2.606;2023-02-11T14:28:19;103599.04;;;13.72;63.45
69351;BME280;57106;51.446;-2.606;2023-02-11T14:30:39;103593.08;;;13.73;62.61
69351;BME280;57106;51.446;-2.606;2023-02-11T14:33:06;103593.34;;;13.81;62.10
69351;BME280;57106;51.446;-2.606;2023-02-11T14:35:26;103589.48;;;13.86;61.52
69351;BME280;57106;51.446;-2.606;2023-02-11T14:37:48;103584.53;;;13.78;61.61
69351;BME280;57106;51.446;-2.606;2023-02-11T14:40:17;103583.38;;;13.63;62.11
69351;BME280;57106;51.446;-2.606;2023-02-11T14:42:35;103582.50;;;13.33;63.85
69351;BME280;57106;51.446;-2.606;2023-02-11T14:45:04;103581.97;;;13.40;63.89
69351;BME280;57106;51.446;-2.606;2023-02-11T14:47:29;103582.38;;;13.01;64.47
69351;BME280;57106;51.446;-2.606;2023-02-11T14:49:51;103586.98;;;12.79;64.74
69351;BME280;57106;51.446;-2.606;2023-02-11T14:52:25;103586.74;;;12.63;65.49
69351;BME280;57106;51.446;-2.606;2023-02-11T14:54:43;103591.09;;;12.64;65.86
69351;BME280;57106;51.446;-2.606;2023-02-11T14:57:11;103590.04;;;12.74;65.19
69351;BME280;57106;51.446;-2.606;2023-02-11T14:59:33;103593.44;;;12.85;65.40
69351;BME280;57106;51.446;-2.606;2023-02-11T15:04:26;103593.53;;;12.61;65.52
69351;BME280;57106;51.446;-2.606;2023-02-11T15:06:50;103594.27;;;12.56;65.20
69351;BME280;57106;51.446;-2.606;2023-02-11T15:09:17;103594.94;;;12.44;65.53
69351;BME280;57106;51.446;-2.606;2023-02-11T15:11:42;103593.10;;;12.57;65.42
69351;BME280;57106;51.446;-2.606;2023-02-11T15:14:08;103593.18;;;12.60;65.00
69351;BME280;57106;51.446;-2.606;2023-02-11T15:16:32;103598.10;;;12.50;65.05
69351;BME280;57106;51.446;-2.606;2023-02-11T15:19:00;103596.40;;;12.41;65.04
69351;BME280;57106;51.446;-2.606;2023-02-11T15:21:24;103600.81;;;12.50;65.42
69351;BME280;57106;51.446;-2.606;2023-02-11T15:23:54;103602.16;;;12.49;65.50
69351;BME280;57106;51.446;-2.606;2023-02-11T15:26:16;103602.86;;;12.46;65.21
69351;BME280;57106;51.446;-2.606;2023-02-11T15:28:45;103605.80;;;12.14;66.06
69351;BME280;57106;51.446;-2.606;2023-02-11T15:31:13;103608.75;;;12.53;65.12
69351;BME280;57106;51.446;-2.606;2023-02-11T15:33:30;103609.84;;;12.51;65.20
69351;BME280;57106;51.446;-2.606;2023-02-11T15:35:56;103607.87;;;12.53;65.20
69351;BME280;57106;51.446;-2.606;2023-02-11T15:38:21;103603.83;;;12.56;65.33
69351;BME280;57106;51.446;-2.606;2023-02-11T15:40:54;103600.68;;;12.56;65.11
69351;BME280;57106;51.446;-2.606;2023-02-11T15:43:12;103601.36;;;12.47;65.55
69351;BME280;57106;51.446;-2.606;2023-02-11T15:45:40;103603.45;;;12.48;65.84
69351;BME280;57106;51.446;-2.606;2023-02-11T15:48:07;103603.06;;;12.29;66.34
69351;BME280;57106;51.446;-2.606;2023-02-11T15:50:30;103601.79;;;12.49;65.67
69351;BME280;57106;51.446;-2.606;2023-02-11T15:52:55;103608.03;;;12.44;66.01
69351;BME280;57106;51.446;-2.606;2023-02-11T15:55:20;103613.77;;;12.54;66.02
69351;BME280;57106;51.446;-2.606;2023-02-11T15:57:49;103616.75;;;12.68;65.08
69351;BME280;57106;51.446;-2.606;2023-02-11T16:00:15;103613.24;;;12.64;65.44
69351;BME280;57106;51.446;-2.606;2023-02-11T16:02:37;103608.71;;;12.55;65.97
69351;BME280;57106;51.446;-2.606;2023-02-11T16:05:05;103608.59;;;12.39;66.50
69351;BME280;57106;51.446;-2.606;2023-02-11T16:07:38;103610.91;;;12.63;66.07
69351;BME280;57106;51.446;-2.606;2023-02-11T16:09:57;103613.09;;;12.65;66.01
69351;BME280;57106;51.446;-2.606;2023-02-11T16:12:23;103610.97;;;12.63;65.94
69351;BME280;57106;51.446;-2.606;2023-02-11T16:14:44;103614.11;;;12.65;65.96
69351;BME280;57106;51.446;-2.606;2023-02-11T16:17:11;103609.87;;;12.59;66.05
69351;BME280;57106;51.446;-2.606;2023-02-11T16:19:40;103609.22;;;12.61;65.69
69351;BME280;57106;51.446;-2.606;2023-02-11T16:22:05;103612.65;;;12.66;65.70
69351;BME280;57106;51.446;-2.606;2023-02-11T16:24:27;103611.32;;;11.89;67.70
69351;BME280;57106;51.446;-2.606;2023-02-11T16:26:54;103614.60;;;12.34;66.79
69351;BME280;57106;51.446;-2.606;2023-02-11T16:29:22;103614.02;;;12.24;67.18
69351;BME280;57106;51.446;-2.606;2023-02-11T16:31:45;103608.38;;;12.28;67.18
69351;BME280;57106;51.446;-2.606;2023-02-11T16:34:14;103607.36;;;12.33;66.62
69351;BME280;57106;51.446;-2.606;2023-02-11T16:36:34;103612.40;;;12.27;67.12
69351;BME280;57106;51.446;-2.606;2023-02-11T16:38:59;103614.19;;;12.42;66.82
69351;BME280;57106;51.446;-2.606;2023-02-11T16:43:50;103610.91;;;12.25;67.23
69351;BME280;57106;51.446;-2.606;2023-02-11T16:46:16;103603.16;;;12.30;66.99
69351;BME280;57106;51.446;-2.606;2023-02-11T16:48:43;103603.74;;;12.35;66.77
69351;BME280;57106;51.446;-2.606;2023-02-11T16:51:10;103605.68;;;12.23;67.01
69351;BME280;57106;51.446;-2.606;2023-02-11T16:53:33;103608.40;;;12.39;66.63
69351;BME280;57106;51.446;-2.606;2023-02-11T16:55:58;103611.37;;;12.43;66.72
69351;BME280;57106;51.446;-2.606;2023-02-11T16:58:24;103613.42;;;12.43;66.83
69351;BME280;57106;51.446;-2.606;2023-02-11T17:00:49;103617.83;;;12.38;66.69
69351;BME280;57106;51.446;-2.606;2023-02-11T17:03:19;103618.26;;;12.39;66.79
69351;BME280;57106;51.446;-2.606;2023-02-11T17:05:40;103620.29;;;12.37;66.75
69351;BME280;57106;51.446;-2.606;2023-02-11T17:08:05;103621.02;;;12.18;66.85
69351;BME280;57106;51.446;-2.606;2023-02-11T17:10:31;103617.35;;;11.98;67.70
69351;BME280;57106;51.446;-2.606;2023-02-11T17:12:56;103613.95;;;11.78;67.90
69351;BME280;57106;51.446;-2.606;2023-02-11T17:15:22;103619.66;;;11.99;67.59
69351;BME280;57106;51.446;-2.606;2023-02-11T17:17:47;103627.92;;;12.11;67.44
69351;BME280;57106;51.446;-2.606;2023-02-11T17:20:16;103628.48;;;12.06;67.33
69351;BME280;57106;51.446;-2.606;2023-02-11T17:22:39;103630.77;;;12.07;67.30
69351;BME280;57106;51.446;-2.606;2023-02-11T17:25:04;103635.88;;;12.15;67.09
69351;BME280;57106;51.446;-2.606;2023-02-11T18:13:35;103686.44;;;12.24;66.31
69351;BME280;57106;51.446;-2.606;2023-02-11T18:16:01;103687.39;;;12.29;66.07
69351;BME280;57106;51.446;-2.606;2023-02-11T18:18:26;103688.67;;;12.33;65.77
69351;BME280;57106;51.446;-2.606;2023-02-11T18:20:58;103684.99;;;12.31;65.71
69351;BME280;57106;51.446;-2.606;2023-02-11T18:23:16;103687.66;;;12.28;65.59
69351;BME280;57106;51.446;-2.606;2023-02-11T18:25:42;103692.45;;;12.04;65.82
69351;BME280;57106;51.446;-2.606;2023-02-11T18:28:07;103690.94;;;12.10;65.74
69351;BME280;57106;51.446;-2.606;2023-02-11T18:30:33;103692.66;;;12.03;66.17
69351;BME280;57106;51.446;-2.606;2023-02-11T18:32:59;103694.21;;;12.02;66.34
69351;BME280;57106;51.446;-2.606;2023-02-11T18:35:24;103697.21;;;12.10;66.33
69351;BME280;57106;51.446;-2.606;2023-02-11T18:37:51;103694.52;;;12.03;66.53
69351;BME280;57106;51.446;-2.606;2023-02-11T18:40:15;103695.97;;;12.04;66.65
69351;BME280;57106;51.446;-2.606;2023-02-11T18:42:40;103694.55;;;12.02;66.81
69351;BME280;57106;51.446;-2.606;2023-02-11T18:45:07;103698.18;;;11.93;66.83
69351;BME280;57106;51.446;-2.606;2023-02-11T18:47:30;103699.66;;;11.91;66.98
69351;BME280;57106;51.446;-2.606;2023-02-11T18:49:55;103697.29;;;11.99;67.00
69351;BME280;57106;51.446;-2.606;2023-02-11T18:52:21;103698.12;;;11.92;67.00
69351;BME280;57106;51.446;-2.606;2023-02-11T18:54:49;103697.56;;;11.95;66.99
69351;BME280;57106;51.446;-2.606;2023-02-11T18:57:12;103701.53;;;11.88;67.11
69351;BME280;57106;51.446;-2.606;2023-02-11T18:59:37;103701.59;;;11.97;66.93
69351;BME280;57106;51.446;-2.606;2023-02-11T19:02:03;103696.43;;;12.03;66.64
69351;BME280;57106;51.446;-2.606;2023-02-11T19:04:28;103695.47;;;12.03;66.74
69351;BME280;57106;51.446;-2.606;2023-02-11T19:06:56;103695.90;;;12.01;66.31
69351;BME280;57106;51.446;-2.606;2023-02-11T19:09:19;103691.99;;;12.02;66.49
69351;BME280;57106;51.446;-2.606;2023-02-11T19:11:44;103691.91;;;12.00;66.47
69351;BME280;57106;51.446;-2.606;2023-02-11T19:14:10;103695.26;;;11.96;66.64
69351;BME280;57106;51.446;-2.606;2023-02-11T19:16:35;103693.71;;;12.00;66.68
69351;BME280;57106;51.446;-2.606;2023-02-11T19:18:59;103690.19;;;11.96;66.67
69351;BME280;57106;51.446;-2.606;2023-02-11T19:21:24;103687.07;;;11.94;66.62
69351;BME280;57106;51.446;-2.606;2023-02-11T19:23:50;103688.45;;;11.92;66.60
69351;BME280;57106;51.446;-2.606;2023-02-11T19:26:15;103686.76;;;11.99;66.44
69351;BME280;57106;51.446;-2.606;2023-02-11T19:28:40;103687.53;;;12.00;66.46
69351;BME280;57106;51.446;-2.606;2023-02-11T19:31:07;103689.56;;;11.98;66.52
69351;BME280;57106;51.446;-2.606;2023-02-11T19:33:31;103688.19;;;11.87;66.74
69351;BME280;57106;51.446;-2.606;2023-02-11T19:36:01;103690.65;;;11.92;66.75
69351;BME280;57106;51.446;-2.606;2023-02-11T19:38:23;103691.06;;;11.85;66.98
69351;BME280;57106;51.446;-2.606;2023-02-11T19:40:54;103690.95;;;11.86;66.99
69351;BME280;57106;51.446;-2.606;2023-02-11T19:43:13;103688.06;;;11.89;67.09
69351;BME280;57106;51.446;-2.606;2023-02-11T19:45:39;103688.52;;;11.84;67.46
69351;BME280;57106;51.446;-2.606;2023-02-11T19:48:04;103688.07;;;11.83;67.03
69351;BME280;57106;51.446;-2.606;2023-02-11T19:50:29;103688.50;;;11.84;66.92
69351;BME280;57106;51.446;-2.606;2023-02-11T19:52:55;103690.91;;;11.83;67.05
69351;BME280;57106;51.446;-2.606;2023-02-11T19:55:21;103694.23;;;11.81;67.20
69351;BME280;57106;51.446;-2.606;2023-02-11T19:57:46;103693.63;;;11.78;67.19
69351;BME280;57106;51.446;-2.606;2023-02-11T20:00:13;103693.08;;;11.82;67.05
69351;BME280;57106;51.446;-2.606;2023-02-11T20:02:38;103693.50;;;11.87;66.87
69351;BME280;57106;51.446;-2.606;2023-02-11T20:05:04;103690.42;;;11.83;66.92
69351;BME280;57106;51.446;-2.606;2023-02-11T20:07:29;103689.60;;;11.85;66.68
69351;BME280;57106;51.446;-2.606;2023-02-11T20:09:53;103691.46;;;11.77;67.14
69351;BME280;57106;51.446;-2.606;2023-02-11T20:12:19;103696.05;;;11.69;67.11
69351;BME280;57106;51.446;-2.606;2023-02-11T20:14:44;103696.85;;;11.78;67.03
69351;BME280;57106;51.446;-2.606;2023-02-11T20:17:09;103696.92;;;11.81;66.99
69351;BME280;57106;51.446;-2.606;2023-02-11T20:19:35;103700.84;;;11.74;67.13
69351;BME280;57106;51.446;-2.606;2023-02-11T20:22:00;103706.46;;;11.75;67.28
69351;BME280;57106;51.446;-2.606;2023-02-11T20:24:25;103703.18;;;11.80;67.15
69351;BME280;57106;51.446;-2.606;2023-02-11T20:26:55;103698.55;;;11.77;67.13
69351;BME280;57106;51.446;-2.606;2023-02-11T20:29:22;103697.76;;;11.78;67.08
69351;BME280;57106;51.446;-2.606;2023-02-11T20:38:58;103704.55;;;11.75;67.07
69351;BME280;57106;51.446;-2.606;2023-02-11T20:41:24;103701.40;;;11.69;67.25
69351;BME280;57106;51.446;-2.606;2023-02-11T20:43:50;103690.29;;;11.72;66.94
69351;BME280;57106;51.446;-2.606;2023-02-11T20:46:16;103689.75;;;11.78;67.02
69351;BME280;57106;51.446;-2.606;2023-02-11T20:48:39;103690.10;;;11.72;67.15
69351;BME280;57106;51.446;-2.606;2023-02-11T20:51:06;103697.69;;;11.60;67.14
69351;BME280;57106;51.446;-2.606;2023-02-11T20:53:31;103697.19;;;11.63;67.14
69351;BME280;57106;51.446;-2.606;2023-02-11T20:55:55;103694.19;;;11.61;67.34
69351;BME280;57106;51.446;-2.606;2023-02-11T20:58:20;103693.27;;;11.68;66.82
69351;BME280;57106;51.446;-2.606;2023-02-11T21:00:46;103695.62;;;11.56;67.25
69351;BME280;57106;51.446;-2.606;2023-02-11T21:03:11;103696.65;;;11.63;67.07
69351;BME280;57106;51.446;-2.606;2023-02-11T21:05:36;103698.65;;;11.57;67.55
69351;BME280;57106;51.446;-2.606;2023-02-11T21:08:02;103699.81;;;11.51;67.46
69351;BME280;57106;51.446;-2.606;2023-02-11T21:10:27;103698.89;;;11.54;67.63
69351;BME280;57106;51.446;-2.606;2023-02-11T21:12:53;103693.82;;;11.61;67.41
69351;BME280;57106;51.446;-2.606;2023-02-11T21:15:17;103695.69;;;11.61;67.99
69351;BME280;57106;51.446;-2.606;2023-02-11T21:17:43;103701.23;;;11.56;68.19
69351;BME280;57106;51.446;-2.606;2023-02-11T21:20:08;103698.23;;;11.55;68.29
69351;BME280;57106;51.446;-2.606;2023-02-11T21:22:33;103691.53;;;11.55;67.98
69351;BME280;57106;51.446;-2.606;2023-02-11T21:24:59;103694.71;;;11.61;67.96
69351;BME280;57106;51.446;-2.606;2023-02-11T21:27:24;103704.37;;;11.58;68.19
69351;BME280;57106;51.446;-2.606;2023-02-11T21:29:54;103704.48;;;11.62;68.09
69351;BME280;57106;51.446;-2.606;2023-02-11T21:32:14;103703.58;;;11.52;68.29
69351;BME280;57106;51.446;-2.606;2023-02-11T21:34:40;103701.88;;;11.54;68.13
69351;BME280;57106;51.446;-2.606;2023-02-11T21:37:05;103698.92;;;11.60;67.95
69351;BME280;57106;51.446;-2.606;2023-02-11T21:39:30;103698.45;;;11.59;68.03
69351;BME280;57106;51.446;-2.606;2023-02-11T21:41:56;103698.05;;;11.46;68.10
69351;BME280;57106;51.446;-2.606;2023-02-11T21:44:21;103698.67;;;11.57;68.08
69351;BME280;57106;51.446;-2.606;2023-02-11T21:46:47;103700.45;;;11.52;68.36
69351;BME280;57106;51.446;-2.606;2023-02-11T21:49:13;103699.15;;;11.58;67.93
69351;BME280;57106;51.446;-2.606;2023-02-11T21:51:37;103697.84;;;11.56;68.00
69351;BME280;57106;51.446;-2.606;2023-02-11T21:54:02;103701.87;;;11.58;68.17
69351;BME280;57106;51.446;-2.606;2023-02-11T21:56:28;103710.52;;;11.52;68.26